Time;durP1;ratioP1;P1;durP2;ratioP2;P2;SDS_P1;SDS_P2;PMS_P1;PMS_P2;Temp;Humidity;BMP_temperature;BMP_pressure;BME280_temperature;BME280_humidity;BME280_pressure;Samples;Min_cycle;Max_cycle;Signal;HPM_P1;HPM_P2
2021/04/02 00:01:28;;;;;;;16.25;11.85;;;;;;;6.03;77.08;100797.01;1737729;82;21139;-74
2021/04/02 00:03:55;;;;;;;14.98;11.68;;;;;;;6.01;77.10;100797.64;1738022;82;21934;-74
2021/04/02 00:06:21;;;;;;;15.08;11.20;;;;;;;6.00;77.12;100798.12;1737875;82;21643;-74
2021/04/02 00:08:47;;;;;;;13.18;11.00;;;;;;;6.01;77.18;100801.61;1737835;82;21152;-74
2021/04/02 00:11:13;;;;;;;16.17;11.08;;;;;;;5.99;77.24;100799.56;1738087;82;21277;-74
2021/04/02 00:13:44;;;;;;;13.62;11.60;;;;;;;5.96;77.28;100798.50;1737864;82;21147;-74
2021/04/02 00:16:10;;;;;;;;;;;;;;;5.92;77.34;100801.05;1740677;82;21143;-74
2021/04/02 00:18:37;;;;;;;18.30;13.48;;;;;;;5.87;77.36;100802.78;1737936;82;20274;-74
2021/04/02 00:21:07;;;;;;;20.20;14.20;;;;;;;5.84;77.36;100804.82;1738031;82;21136;-74
2021/04/02 00:23:35;;;;;;;15.55;12.75;;;;;;;5.83;77.38;100805.78;1734515;82;21620;-74
2021/04/02 00:26:01;;;;;;;15.40;12.50;;;;;;;5.80;77.40;100801.59;1722139;83;21220;-74
2021/04/02 00:28:28;;;;;;;14.78;12.63;;;;;;;5.79;77.36;100803.03;1722599;83;21517;-74
2021/04/02 00:30:56;;;;;;;16.40;12.43;;;;;;;5.77;77.39;100807.12;1712938;82;21195;-74
2021/04/02 00:33:25;;;;;;;14.50;11.15;;;;;;;5.75;77.42;100810.39;1710213;83;21198;-74
2021/04/02 00:35:51;;;;;;;14.20;10.78;;;;;;;5.74;77.42;100811.83;1710053;83;22176;-74
2021/04/02 00:38:17;;;;;;;12.50;10.90;;;;;;;5.76;77.45;100811.23;1709992;83;21155;-74
2021/04/02 00:40:53;;;;;;;15.50;11.93;;;;;;;5.79;77.44;100812.30;1709936;83;21210;-74
2021/04/02 00:43:22;;;;;;;16.37;12.47;;;;;;;5.75;77.47;100810.87;1709936;83;21127;-74
2021/04/02 00:45:48;;;;;;;13.80;11.73;;;;;;;5.74;77.46;100814.47;1710194;83;21172;-74
2021/04/02 00:48:14;;;;;;;16.57;13.28;;;;;;;5.71;77.45;100809.45;1709944;83;22156;-74
2021/04/02 00:50:48;;;;;;;17.37;13.53;;;;;;;5.71;77.43;100813.41;1710030;83;21211;-74
2021/04/02 00:53:15;;;;;;;20.12;15.28;;;;;;;5.70;77.41;100823.66;1710033;83;21194;-74
2021/04/02 00:55:42;;;;;;;19.60;15.08;;;;;;;5.66;77.38;100820.91;1730897;82;21569;-74
2021/04/02 00:58:14;;;;;;;18.12;14.43;;;;;;;5.64;77.35;100821.51;1739583;82;21135;-74
2021/04/02 01:00:40;;;;;;;19.67;14.87;;;;;;;5.63;77.34;100819.85;1739581;82;21264;-74
2021/04/02 01:03:06;;;;;;;21.82;15.35;;;;;;;5.62;77.32;100826.09;1739378;82;21203;-74
2021/04/02 01:05:37;;;;;;;19.17;15.70;;;;;;;5.62;77.31;100823.45;1739370;82;21159;-74
2021/04/02 01:08:10;;;;;;;22.87;16.90;;;;;;;5.62;77.30;100831.39;1739649;82;21790;-74
2021/04/02 01:10:36;;;;;;;20.57;16.02;;;;;;;5.63;77.28;100830.44;1739413;82;21609;-74
2021/04/02 01:13:16;;;;;;;22.13;17.00;;;;;;;5.62;77.25;100830.07;1739535;82;21204;-74
2021/04/02 01:15:45;;;;;;;;;;;;;;;5.61;77.24;100833.20;1742268;82;21219;-74
2021/04/02 01:18:35;;;;;;;19.52;15.83;;;;;;;5.60;77.20;100835.95;1739284;82;20538;-74
2021/04/02 01:21:19;;;;;;;17.82;14.87;;;;;;;5.58;77.18;100837.90;1739656;82;21171;-73
2021/04/02 01:24:24;;;;;;;17.23;13.90;;;;;;;5.61;77.14;100849.55;1811404;78;22320;-74
2021/04/02 01:27:37;;;;;;;17.65;12.90;;;;;;;5.54;77.11;100851.86;1777845;79;21167;-75
2021/04/02 01:30:08;;;;;;;17.80;12.90;;;;;;;5.56;77.10;100849.11;1765755;81;21275;-75
2021/04/02 01:32:40;;;;;;;11.05;9.05;;;;;;;5.59;77.05;100849.69;1768045;79;21159;-74
2021/04/02 01:35:30;;;;;;;11.18;8.65;;;;;;;5.61;77.05;100862.77;1797024;79;21187;-75
2021/04/02 01:38:21;;;;;;;15.40;10.18;;;;;;;5.57;77.08;100853.41;1797164;79;21638;-75
2021/04/02 01:40:50;;;;;;;11.43;9.15;;;;;;;5.53;77.09;100856.31;1764587;81;21123;-75
2021/04/02 01:43:20;;;;;;;10.68;8.40;;;;;;;5.53;77.09;100862.92;1788675;80;21815;-75
2021/04/02 01:45:47;;;;;;;8.90;7.90;;;;;;;5.49;77.09;100864.14;1756832;81;21194;-74
2021/04/02 01:48:14;;;;;;;8.80;7.65;;;;;;;5.46;77.06;100867.03;1757803;81;21136;-74
2021/04/02 01:50:43;;;;;;;12.07;8.18;;;;;;;5.41;77.06;100874.52;1757254;81;21175;-74
2021/04/02 01:53:10;;;;;;;10.88;7.33;;;;;;;5.37;77.04;100882.34;1757620;81;21152;-74
2021/04/02 01:55:37;;;;;;;7.45;6.45;;;;;;;5.33;77.04;100874.30;1757244;81;21212;-74
2021/04/02 01:58:05;;;;;;;7.95;6.60;;;;;;;5.29;77.04;100879.48;1757619;81;21160;-74
2021/04/02 02:00:36;;;;;;;7.53;6.62;;;;;;;5.25;77.04;100876.72;1728021;81;21622;-74
2021/04/02 02:03:03;;;;;;;11.12;8.38;;;;;;;5.24;77.04;100885.60;1757550;81;21129;-75
2021/04/02 02:05:29;;;;;;;14.13;9.83;;;;;;;5.21;77.03;100880.56;1757580;81;21161;-74
2021/04/02 02:07:58;;;;;;;12.55;9.20;;;;;;;5.17;77.05;100887.09;1757402;81;21194;-75
2021/04/02 02:10:24;;;;;;;12.45;10.48;;;;;;;5.15;77.04;100885.52;1757468;81;21195;-74
2021/04/02 02:12:50;;;;;;;13.22;11.18;;;;;;;5.13;77.01;100882.16;1757511;81;21175;-75
2021/04/02 02:15:17;;;;;;;15.63;11.50;;;;;;;5.07;76.99;100886.12;1751437;81;21164;-75
2021/04/02 02:17:48;;;;;;;17.07;11.08;;;;;;;5.01;76.97;100878.22;1704207;84;21156;-75
2021/04/02 02:20:15;;;;;;;14.53;10.60;;;;;;;4.97;76.94;100884.70;1702178;82;21330;-74
2021/04/02 02:22:42;;;;;;;14.30;10.58;;;;;;;4.94;76.90;100890.72;1724690;81;21200;-74
2021/04/02 02:25:10;;;;;;;14.25;10.05;;;;;;;4.89;76.85;100900.31;1717921;82;21137;-74
2021/04/02 02:27:37;;;;;;;15.47;10.20;;;;;;;4.86;76.82;100895.76;1749587;82;21199;-74
2021/04/02 02:30:09;;;;;;;12.65;8.85;;;;;;;4.84;76.79;100902.50;1749421;82;21153;-74
2021/04/02 02:32:36;;;;;;;12.85;9.55;;;;;;;4.79;76.73;100910.41;1749349;82;21199;-74
2021/04/02 02:35:05;;;;;;;13.35;9.55;;;;;;;4.77;76.65;100904.42;1748857;82;21144;-74
2021/04/02 02:37:31;;;;;;;13.15;8.98;;;;;;;4.72;76.57;100901.28;1748828;82;21138;-74
2021/04/02 02:39:57;;;;;;;13.35;9.08;;;;;;;4.68;76.48;100906.48;1717423;82;22382;-74
2021/04/02 02:42:24;;;;;;;12.95;8.78;;;;;;;4.67;76.38;100892.90;1717594;82;21124;-74
2021/04/02 02:44:50;;;;;;;9.85;6.92;;;;;;;4.66;76.30;100905.73;1749007;82;21213;-74
2021/04/02 02:47:17;;;;;;;9.10;7.25;;;;;;;4.63;76.20;100907.30;1748726;82;21674;-74
2021/04/02 02:49:43;;;;;;;8.20;6.37;;;;;;;4.60;76.12;100904.42;1748839;81;21546;-74
2021/04/02 02:52:09;;;;;;;12.00;7.45;;;;;;;4.61;76.05;100902.63;1726728;83;21143;-73
2021/04/02 02:54:36;;;;;;;10.18;6.97;;;;;;;4.61;75.99;100910.55;1726649;83;21152;-74
2021/04/02 02:57:03;;;;;;;15.70;10.08;;;;;;;4.60;75.92;100903.11;1726779;83;21199;-74
2021/04/02 02:59:29;;;;;;;15.53;10.65;;;;;;;4.60;75.87;100896.98;1696376;84;21159;-74
2021/04/02 03:01:56;;;;;;;10.90;8.78;;;;;;;4.59;75.80;100897.45;1726785;83;21200;-73
2021/04/02 03:04:22;;;;;;;10.18;8.40;;;;;;;4.58;75.72;100893.59;1726468;83;21150;-74
2021/04/02 03:06:50;;;;;;;10.50;8.05;;;;;;;4.57;75.65;100900.71;1726852;83;21180;-74
2021/04/02 03:09:16;;;;;;;11.40;8.73;;;;;;;4.55;75.61;100898.65;1726551;83;21191;-74
2021/04/02 03:11:44;;;;;;;11.35;7.72;;;;;;;4.51;75.53;100904.65;1726676;83;21576;-74
2021/04/02 03:14:16;;;;;;;9.78;7.35;;;;;;;4.48;75.45;100893.00;1726908;83;21190;-74
2021/04/02 03:16:47;;;;;;;9.70;6.25;;;;;;;4.48;75.37;100910.17;1779519;80;21132;-74
2021/04/02 03:19:16;;;;;;;8.88;6.58;;;;;;;4.45;75.30;100915.70;1779758;80;21136;-74
2021/04/02 03:21:44;;;;;;;8.15;6.60;;;;;;;4.43;75.23;100912.82;1728134;82;22106;-74
2021/04/02 03:24:11;;;;;;;7.78;6.25;;;;;;;4.40;75.18;100913.88;1780966;80;21219;-74
2021/04/02 03:26:37;;;;;;;10.60;7.72;;;;;;;4.40;75.11;100913.88;1781069;80;21152;-74
2021/04/02 03:29:04;;;;;;;12.65;7.78;;;;;;;4.36;75.04;100915.06;1781289;80;21137;-74
2021/04/02 03:31:34;;;;;;;8.60;6.97;;;;;;;4.33;74.96;100919.26;1781233;80;21109;-74
2021/04/02 03:34:01;;;;;;;10.25;7.40;;;;;;;4.30;74.89;100912.90;1781006;80;21605;-74
2021/04/02 03:36:28;;;;;;;24.77;18.48;;;;;;;4.24;74.80;100904.14;1781019;80;21112;-74
2021/04/02 03:38:54;;;;;;;16.52;11.50;;;;;;;4.19;74.72;100905.42;1780899;80;21120;-74
2021/04/02 03:41:25;;;;;;;13.55;8.83;;;;;;;4.16;74.65;100910.47;1748704;82;21203;-74
2021/04/02 03:43:52;;;;;;;7.85;6.50;;;;;;;4.14;74.55;100908.44;1781022;80;21171;-74
2021/04/02 03:46:19;;;;;;;9.90;7.12;;;;;;;4.14;74.49;100903.16;1748761;81;21156;-74
2021/04/02 03:48:48;;;;;;;11.78;7.95;;;;;;;4.14;74.42;100913.72;1756762;81;21175;-73
2021/04/02 03:51:21;;;;;;;24.75;11.43;;;;;;;4.18;74.39;100919.13;1693506;83;21132;-74
2021/04/02 03:53:51;;;;;;;18.48;10.00;;;;;;;4.20;74.33;100910.60;1748789;82;21180;-74
2021/04/02 03:56:22;;;;;;;30.43;11.93;;;;;;;4.20;74.24;100921.16;1748825;82;21179;-74
2021/04/02 03:58:49;;;;;;;16.77;9.48;;;;;;;4.19;74.19;100924.75;1756924;81;22107;-74
2021/04/02 04:01:18;;;;;;;8.58;6.05;;;;;;;4.19;74.15;100932.67;1748642;82;21128;-73
2021/04/02 04:03:45;;;;;;;;;;;;;;;4.18;74.06;100923.56;1751274;82;21168;-73
2021/04/02 04:06:20;;;;;;;6.22;4.72;;;;;;;4.16;74.03;100931.58;1748887;82;20240;-74
2021/04/02 04:08:50;;;;;;;10.53;5.95;;;;;;;4.13;73.98;100930.50;1748582;82;21131;-74
2021/04/02 04:11:16;;;;;;;;;;;;;;;4.10;73.91;100932.05;1751502;82;21211;-73
2021/04/02 04:13:45;;;;;;;7.80;4.72;;;;;;;4.05;73.83;100940.78;1748555;82;20280;-73
2021/04/02 04:16:14;;;;;;;6.87;5.00;;;;;;;3.99;73.77;100938.61;1705467;82;21150;-74
2021/04/02 04:18:40;;;;;;;8.30;4.72;;;;;;;3.96;73.71;100937.05;1636113;86;21382;-74
2021/04/02 04:21:07;;;;;;;7.12;4.60;;;;;;;3.96;73.65;100938.84;1723516;83;21124;-73
2021/04/02 04:23:34;;;;;;;6.10;3.75;;;;;;;3.97;73.61;100937.90;1695708;84;21222;-73
2021/04/02 04:26:00;;;;;;;5.33;4.30;;;;;;;3.98;73.57;100942.20;1695724;84;21217;-73
2021/04/02 04:28:26;;;;;;;7.37;4.58;;;;;;;3.97;73.54;100941.86;1695809;84;21170;-73
2021/04/02 04:30:56;;;;;;;8.18;5.15;;;;;;;3.96;73.51;100942.33;1695589;84;21176;-73
2021/04/02 04:33:23;;;;;;;12.25;8.53;;;;;;;3.96;73.49;100942.33;1696091;84;21138;-73
2021/04/02 04:35:50;;;;;;;13.60;7.62;;;;;;;3.99;73.48;100941.25;1715664;83;21164;-73
2021/04/02 04:38:16;;;;;;;14.93;7.37;;;;;;;4.00;73.46;100935.03;1725425;83;21164;-73
2021/04/02 04:40:42;;;;;;;7.85;6.03;;;;;;;3.98;73.42;100939.09;1715773;83;21212;-73
2021/04/02 04:43:13;;;;;;;16.70;7.62;;;;;;;3.95;73.39;100943.75;1725274;81;21160;-73
2021/04/02 04:45:39;;;;;;;;;;;;;;;3.89;73.31;100941.10;1759511;81;21276;-73
2021/04/02 04:48:06;;;;;;;17.92;5.95;;;;;;;3.86;73.26;100945.77;1756854;81;21271;-73
2021/04/02 04:50:33;;;;;;;13.75;6.30;;;;;;;3.80;73.22;100944.41;1756776;81;21144;-73
2021/04/02 04:53:07;;;;;;;10.88;6.53;;;;;;;3.78;73.14;100946.33;1748629;82;21148;-73
2021/04/02 04:55:36;;;;;;;10.03;6.50;;;;;;;3.76;73.08;100944.30;1748595;82;21156;-73
2021/04/02 04:58:03;;;;;;;9.43;7.13;;;;;;;3.77;73.02;100944.63;1749069;82;21121;-73
2021/04/02 05:00:30;;;;;;;11.53;6.97;;;;;;;3.78;72.95;100950.76;1756440;81;21600;-73
2021/04/02 05:02:57;;;;;;;9.65;6.50;;;;;;;3.78;72.89;100952.92;1756917;81;21171;-74
2021/04/02 05:05:31;;;;;;;11.40;6.50;;;;;;;3.78;72.84;100950.76;1756739;81;21132;-74
2021/04/02 05:07:58;;;;;;;9.10;6.10;;;;;;;3.77;72.80;100958.30;1722578;81;21144;-74
2021/04/02 05:10:24;;;;;;;9.00;5.60;;;;;;;3.79;72.75;100959.05;1756806;81;21168;-74
2021/04/02 05:12:51;;;;;;;11.70;7.33;;;;;;;3.79;72.70;100962.53;1748670;82;21235;-74
2021/04/02 05:15:19;;;;;;;9.23;6.30;;;;;;;3.82;72.66;100960.13;1748925;82;21120;-74
2021/04/02 05:17:46;;;;;;;9.45;5.30;;;;;;;3.83;72.65;100956.55;1756750;81;21188;-74
2021/04/02 05:20:14;;;;;;;8.08;5.90;;;;;;;3.84;72.61;100960.38;1748786;82;21200;-73
2021/04/02 05:22:40;;;;;;;11.65;7.20;;;;;;;3.82;72.59;100968.05;1756521;81;21140;-73
2021/04/02 05:25:07;;;;;;;10.58;6.60;;;;;;;3.79;72.57;100970.91;1748891;81;21264;-73
2021/04/02 05:27:35;;;;;;;7.60;5.22;;;;;;;3.83;72.53;100971.06;1731687;82;21175;-74
2021/04/02 05:30:04;;;;;;;8.15;5.50;;;;;;;3.82;72.48;100971.53;1756686;81;21147;-74
2021/04/02 05:32:30;;;;;;;11.80;7.60;;;;;;;3.78;72.43;100970.54;1756747;81;21193;-74
2021/04/02 05:34:57;;;;;;;6.90;6.20;;;;;;;3.76;72.38;100973.78;1756498;81;21163;-74
2021/04/02 05:37:23;;;;;;;11.90;8.80;;;;;;;3.76;72.34;100979.91;1748372;82;21181;-74
2021/04/02 05:39:49;;;;;;;13.55;7.42;;;;;;;3.74;72.27;100975.67;1756546;81;21164;-73
2021/04/02 05:42:22;;;;;;;7.50;6.65;;;;;;;3.75;72.21;100974.72;1748810;82;21637;-74
2021/04/02 05:44:49;;;;;;;9.65;7.08;;;;;;;3.78;72.20;100975.34;1756785;81;21128;-74
2021/04/02 05:47:16;;;;;;;18.50;8.68;;;;;;;3.79;72.16;100973.55;1756611;81;21182;-73
2021/04/02 05:49:43;;;;;;;10.90;6.65;;;;;;;3.81;72.12;100971.63;1743191;81;21295;-74
2021/04/02 05:52:09;;;;;;;11.97;6.05;;;;;;;3.84;72.08;100972.72;1752506;81;21191;-73
2021/04/02 05:54:37;;;;;;;7.25;5.70;;;;;;;3.84;72.07;100968.77;1754222;81;21180;-73
2021/04/02 05:57:05;;;;;;;7.40;5.97;;;;;;;3.82;72.03;100967.57;1755741;81;21605;-73
2021/04/02 05:59:31;;;;;;;10.35;7.15;;;;;;;3.83;72.02;100967.10;1725522;82;21127;-74
2021/04/02 06:01:58;;;;;;;8.90;7.15;;;;;;;3.81;72.02;100967.67;1748779;82;21152;-74
2021/04/02 06:04:24;;;;;;;9.75;6.95;;;;;;;3.85;72.02;100973.09;1743395;82;21141;-73
2021/04/02 06:06:50;;;;;;;11.70;7.62;;;;;;;3.92;71.99;100971.69;1736689;82;21173;-74
2021/04/02 06:09:16;;;;;;;9.35;7.20;;;;;;;3.94;71.96;100965.84;1739306;82;21558;-73
2021/04/02 06:11:43;;;;;;;12.93;7.67;;;;;;;3.94;71.91;100968.48;1739582;82;21557;-74
2021/04/02 06:14:09;;;;;;;10.53;7.35;;;;;;;3.97;71.89;100964.28;1739464;81;22131;-74
2021/04/02 06:16:35;;;;;;;9.75;7.42;;;;;;;3.94;71.82;100969.80;1757016;81;21196;-73
2021/04/02 06:19:10;;;;;;;10.23;7.28;;;;;;;3.97;71.79;100963.81;1743765;81;21145;-74
2021/04/02 06:21:54;;;;;;;12.33;7.50;;;;;;;4.01;71.74;100971.02;1734177;81;21163;-74
2021/04/02 06:24:40;;;;;;;11.95;7.85;;;;;;;3.95;71.71;100976.73;1718166;83;21136;-74
2021/04/02 06:27:09;;;;;;;12.75;8.83;;;;;;;3.93;71.66;100976.02;1757405;79;21428;-74
2021/04/02 06:29:41;;;;;;;17.10;9.38;;;;;;;3.96;71.62;100973.15;1762927;79;21161;-74
2021/04/02 06:32:12;;;;;;;32.48;14.60;;;;;;;3.96;71.58;100970.51;1731535;81;21165;-74
2021/04/02 06:34:49;;;;;;;22.93;11.43;;;;;;;3.97;71.54;100973.52;1726866;81;21156;-74
2021/04/02 06:37:17;;;;;;;9.40;7.55;;;;;;;4.01;71.50;100974.98;1753500;81;21656;-74
2021/04/02 06:39:51;;;;;;;10.25;6.92;;;;;;;4.07;71.43;100972.34;1725823;81;21148;-74
2021/04/02 06:42:33;;;;;;;8.65;5.90;;;;;;;4.07;71.38;100977.62;1755227;81;21168;-74
2021/04/02 06:45:06;;;;;;;9.45;6.75;;;;;;;4.06;71.35;100969.34;1724834;81;21183;-74
2021/04/02 06:47:39;;;;;;;14.40;6.33;;;;;;;4.11;71.32;100968.05;1754967;80;21191;-74
2021/04/02 06:50:24;;;;;;;11.65;7.28;;;;;;;4.10;71.25;100969.00;1750840;80;21186;-74
2021/04/02 06:52:55;;;;;;;8.30;7.22;;;;;;;4.23;71.24;100972.87;1750293;81;21583;-74
2021/04/02 06:55:22;;;;;;;10.18;6.75;;;;;;;4.43;71.18;100974.37;1754510;81;21163;-75
2021/04/02 06:57:50;;;;;;;19.87;9.85;;;;;;;4.58;71.15;100967.55;1724371;83;21168;-74
2021/04/02 07:00:25;;;;;;;15.65;7.67;;;;;;;4.67;71.07;100972.14;1746800;82;21192;-75
2021/04/02 07:02:52;;;;;;;10.45;7.53;;;;;;;4.80;71.00;100968.91;1747902;82;21216;-74
2021/04/02 07:05:24;;;;;;;8.33;7.50;;;;;;;4.91;70.92;100970.24;1746924;82;21596;-74
2021/04/02 07:08:00;;;;;;;9.58;7.08;;;;;;;4.88;70.89;100981.05;1741207;81;21192;-74
2021/04/02 07:10:28;;;;;;;10.13;7.67;;;;;;;4.90;70.76;100973.83;1747678;82;22002;-74
2021/04/02 07:12:54;;;;;;;11.35;7.95;;;;;;;4.84;70.65;100976.96;1747601;81;21165;-75
2021/04/02 07:15:21;;;;;;;17.50;8.30;;;;;;;4.80;70.57;100972.40;1722094;82;21739;-75
2021/04/02 07:17:47;;;;;;;13.90;8.30;;;;;;;4.85;70.48;100971.57;1747372;82;21967;-75
2021/04/02 07:20:14;;;;;;;11.43;7.70;;;;;;;4.92;70.36;100980.70;1756124;81;21195;-75
2021/04/02 07:22:41;;;;;;;22.87;11.03;;;;;;;5.08;70.30;100975.05;1754343;80;21155;-75
2021/04/02 07:25:09;;;;;;;12.20;8.70;;;;;;;5.22;70.20;100977.44;1748831;80;21723;-75
2021/04/02 07:27:35;;;;;;;11.15;8.50;;;;;;;5.30;70.05;100980.33;1755210;81;21156;-75
2021/04/02 07:30:04;;;;;;;10.72;8.13;;;;;;;5.41;69.96;100980.31;1756649;81;21613;-75
2021/04/02 07:32:31;;;;;;;15.75;9.75;;;;;;;5.36;69.76;100977.19;1756996;81;21165;-75
2021/04/02 07:34:59;;;;;;;10.08;7.30;;;;;;;5.44;69.63;100973.45;1756807;80;21130;-75
2021/04/02 07:37:25;;;;;;;10.98;7.80;;;;;;;5.47;69.51;100975.84;1756876;81;21186;-75
2021/04/02 07:39:54;;;;;;;12.93;7.83;;;;;;;5.81;69.41;100969.13;1756885;81;21122;-75
2021/04/02 07:42:23;;;;;;;10.95;7.28;;;;;;;6.04;69.23;100968.13;1757215;81;21240;-75
2021/04/02 07:44:53;;;;;;;19.25;12.35;;;;;;;6.12;69.08;100964.85;1756729;80;21201;-75
2021/04/02 07:47:21;;;;;;;10.40;7.80;;;;;;;6.31;68.92;100971.12;1756931;81;21149;-75
2021/04/02 07:49:54;;;;;;;8.65;6.97;;;;;;;6.70;68.76;100976.66;1722378;80;21173;-75
2021/04/02 07:52:39;;;;;;;9.63;7.87;;;;;;;6.77;68.56;100973.36;1756581;80;21137;-75
2021/04/02 07:55:17;;;;;;;10.00;8.88;;;;;;;7.02;68.42;100972.09;1756967;81;21210;-75
2021/04/02 07:58:02;;;;;;;14.40;8.98;;;;;;;7.34;68.28;100975.42;1694448;84;21188;-75
2021/04/02 08:00:32;;;;;;;12.88;9.20;;;;;;;7.52;68.12;100967.66;1748661;82;21860;-75
2021/04/02 08:03:15;;;;;;;32.42;20.17;;;;;;;7.65;67.87;100971.37;1757029;81;21141;-75
2021/04/02 08:05:57;;;;;;;17.60;10.82;;;;;;;7.70;67.66;100973.14;1756845;80;21169;-75
2021/04/02 08:08:24;;;;;;;16.00;8.23;;;;;;;7.76;67.43;100964.61;1725917;81;21670;-75
2021/04/02 08:11:22;;;;;;;8.55;7.35;;;;;;;7.72;67.14;100963.20;1756696;81;21164;-75
2021/04/02 08:13:54;;;;;;;10.82;7.92;;;;;;;7.75;66.99;100961.59;1756818;81;21116;-75
2021/04/02 08:16:46;;;;;;;15.70;9.88;;;;;;;7.66;66.86;100963.28;1756889;81;21154;-75
2021/04/02 08:19:28;;;;;;;12.75;7.30;;;;;;;7.60;66.66;100961.16;1723006;81;21148;-75
2021/04/02 08:22:00;;;;;;;15.68;8.83;;;;;;;7.53;66.34;100960.86;1756752;80;21206;-75
2021/04/02 08:24:29;;;;;;;9.40;7.17;;;;;;;7.60;66.08;100955.03;1756682;80;21149;-75
2021/04/02 08:26:55;;;;;;;12.55;9.65;;;;;;;7.61;65.92;100956.69;1756879;81;21524;-75
2021/04/02 08:29:25;;;;;;;15.18;8.73;;;;;;;7.52;65.79;100957.88;1722989;81;21201;-75
2021/04/02 08:31:56;;;;;;;14.03;9.08;;;;;;;7.66;65.68;100961.11;1756771;81;21145;-75
2021/04/02 08:34:24;;;;;;;9.85;8.60;;;;;;;7.66;65.52;100953.15;1756378;81;21220;-75
2021/04/02 08:36:53;;;;;;;13.60;8.30;;;;;;;7.73;65.36;100955.60;1756656;81;21154;-75
2021/04/02 08:39:23;;;;;;;10.82;8.60;;;;;;;7.73;65.05;100959.59;1756796;81;21134;-75
2021/04/02 08:41:47;;;;;;;17.25;10.23;;;;;;;7.70;64.81;100952.75;1756526;81;21172;-75
2021/04/02 08:44:13;;;;;;;13.90;9.88;;;;;;;7.66;64.54;100951.82;1756754;80;21133;-75
2021/04/02 08:46:45;;;;;;;15.28;9.40;;;;;;;7.80;64.50;100941.64;1723115;81;21202;-75
2021/04/02 08:49:14;;;;;;;12.70;9.40;;;;;;;7.87;64.32;100940.11;1756734;81;21615;-75
2021/04/02 08:51:42;;;;;;;17.98;12.75;;;;;;;7.97;64.18;100944.09;1756831;81;21153;-76
2021/04/02 08:54:15;;;;;;;12.13;9.98;;;;;;;8.11;64.11;100945.48;1756304;81;21173;-76
2021/04/02 08:56:41;;;;;;;13.18;9.60;;;;;;;8.26;63.96;100937.44;1756902;80;21662;-76
2021/04/02 08:59:10;;;;;;;12.63;10.58;;;;;;;8.31;63.79;100936.53;1756728;81;22194;-76
2021/04/02 09:01:41;;;;;;;13.70;10.55;;;;;;;8.32;63.63;100935.08;1756605;81;21133;-75
2021/04/02 09:04:09;;;;;;;20.32;11.22;;;;;;;8.30;63.46;100935.69;1723835;81;21121;-75
2021/04/02 09:06:35;;;;;;;14.05;9.98;;;;;;;8.18;63.26;100942.12;1754434;81;21151;-75
2021/04/02 09:09:03;;;;;;;13.58;9.33;;;;;;;8.14;63.11;100937.22;1754658;80;21143;-75
2021/04/02 09:11:29;;;;;;;11.00;9.58;;;;;;;8.11;62.87;100937.02;1760553;80;21644;-75
2021/04/02 09:13:55;;;;;;;12.35;9.35;;;;;;;8.06;62.42;100935.78;1752500;80;21577;-75
2021/04/02 09:16:21;;;;;;;12.80;10.53;;;;;;;7.92;62.11;100938.34;1745345;81;21159;-75
2021/04/02 09:18:54;;;;;;;14.80;11.95;;;;;;;7.85;61.96;100926.59;1723287;81;21160;-75
2021/04/02 09:21:22;;;;;;;14.25;10.90;;;;;;;7.81;61.83;100929.20;1741666;81;21222;-75
2021/04/02 09:23:52;;;;;;;30.17;13.50;;;;;;;7.86;61.70;100934.92;1751193;80;21200;-75
2021/04/02 09:26:18;;;;;;;16.55;12.85;;;;;;;7.93;61.53;100930.73;1736882;81;21171;-75
2021/04/02 09:28:44;;;;;;;17.52;12.43;;;;;;;8.02;61.37;100931.23;1745819;81;21205;-75
2021/04/02 09:31:27;;;;;;;19.75;12.63;;;;;;;8.10;61.28;100935.82;1756421;81;21146;-75
2021/04/02 09:34:00;;;;;;;16.37;12.45;;;;;;;8.29;61.19;100933.19;1745130;81;21131;-76
2021/04/02 09:36:30;;;;;;;19.07;14.10;;;;;;;8.35;60.99;100928.63;1740618;81;23565;-76
2021/04/02 09:39:09;;;;;;;18.65;14.55;;;;;;;8.41;60.95;100927.56;1747361;81;21250;-76
2021/04/02 09:41:42;;;;;;;16.70;12.07;;;;;;;8.48;60.84;100926.01;1746138;81;21182;-76
2021/04/02 09:44:14;;;;;;;16.45;12.15;;;;;;;8.53;60.69;100918.45;1755908;80;21203;-76
2021/04/02 09:46:42;;;;;;;14.83;11.83;;;;;;;8.47;60.60;100917.71;1754847;81;21202;-75
2021/04/02 09:49:13;;;;;;;13.80;11.18;;;;;;;8.52;60.52;100910.61;1726607;81;21355;-75
2021/04/02 09:51:47;;;;;;;21.80;12.93;;;;;;;8.65;60.49;100902.34;1728816;81;21717;-75
2021/04/02 09:54:14;;;;;;;13.88;11.45;;;;;;;8.57;60.38;100904.87;1740593;82;21153;-74
2021/04/02 09:56:40;;;;;;;16.00;12.28;;;;;;;8.62;60.26;100905.29;1724494;83;21236;-75
2021/04/02 09:59:07;;;;;;;14.73;11.28;;;;;;;8.69;60.22;100903.20;1753439;80;21179;-75
2021/04/02 10:01:34;;;;;;;13.85;11.00;;;;;;;8.85;60.17;100890.63;1755348;81;21201;-75
2021/04/02 10:04:00;;;;;;;21.15;11.65;;;;;;;8.90;60.04;100892.38;1753082;81;21183;-74
2021/04/02 10:06:27;;;;;;;13.08;8.70;;;;;;;8.98;59.91;100882.66;1755861;81;21174;-75
2021/04/02 10:08:53;;;;;;;12.60;9.55;;;;;;;8.97;59.72;100886.81;1757451;80;21122;-75
2021/04/02 10:11:21;;;;;;;14.28;8.80;;;;;;;8.92;59.42;100881.92;1749411;80;21248;-75
2021/04/02 10:13:48;;;;;;;29.90;15.38;;;;;;;8.91;59.19;100884.72;1755319;81;21884;-75
2021/04/02 10:16:15;;;;;;;9.53;7.60;;;;;;;8.88;58.74;100874.37;1758717;81;21179;-75
2021/04/02 10:18:41;;;;;;;12.00;7.50;;;;;;;8.88;58.48;100875.70;1756409;80;21580;-75
2021/04/02 10:21:08;;;;;;;10.63;7.47;;;;;;;8.95;58.40;100867.48;1754890;81;21119;-75
2021/04/02 10:23:34;;;;;;;13.50;8.50;;;;;;;9.01;58.33;100861.56;1740879;81;21175;-75
2021/04/02 10:26:01;;;;;;;15.85;7.33;;;;;;;9.19;58.19;100851.80;1754742;80;21921;-75
2021/04/02 10:28:27;;;;;;;11.50;7.17;;;;;;;9.19;57.97;100850.47;1757681;80;21178;-75
2021/04/02 10:30:53;;;;;;;28.47;9.03;;;;;;;9.12;57.70;100852.05;1754651;81;21195;-75
2021/04/02 10:33:20;;;;;;;9.13;7.08;;;;;;;9.09;57.45;100841.70;1755723;81;21155;-75
2021/04/02 10:35:46;;;;;;;10.88;6.42;;;;;;;9.17;57.28;100846.29;1724251;83;21541;-74
2021/04/02 10:38:12;;;;;;;8.98;6.05;;;;;;;9.15;57.02;100838.96;1737636;82;21231;-75
2021/04/02 10:40:39;;;;;;;10.72;5.65;;;;;;;9.22;56.87;100842.70;1706125;83;21195;-75
2021/04/02 10:43:05;;;;;;;5.58;4.22;;;;;;;9.27;56.68;100830.60;1755782;80;21253;-75
2021/04/02 10:45:32;;;;;;;11.40;5.67;;;;;;;9.38;56.53;100833.05;1727741;81;21133;-75
2021/04/02 10:47:58;;;;;;;11.08;5.92;;;;;;;9.44;56.24;100825.77;1755881;81;21185;-75
2021/04/02 10:50:25;;;;;;;7.25;5.95;;;;;;;9.39;55.97;100821.39;1724630;81;21217;-75
2021/04/02 10:52:51;;;;;;;15.18;5.17;;;;;;;9.43;55.79;100820.59;1761765;81;21161;-75
2021/04/02 10:55:17;;;;;;;7.58;5.25;;;;;;;9.53;55.59;100818.19;1758456;81;21162;-75
2021/04/02 10:57:44;;;;;;;8.25;5.40;;;;;;;9.51;55.28;100813.53;1754922;81;21591;-75
2021/04/02 11:00:12;;;;;;;11.50;5.67;;;;;;;9.67;55.11;100808.01;1755466;80;21715;-74
2021/04/02 11:02:38;;;;;;;7.85;5.22;;;;;;;9.76;54.63;100801.74;1755366;81;21179;-74
2021/04/02 11:05:07;;;;;;;6.55;4.00;;;;;;;9.79;54.28;100802.77;1755349;81;21172;-74
2021/04/02 11:07:33;;;;;;;7.42;4.10;;;;;;;9.81;54.01;100804.80;1755579;81;21151;-75
2021/04/02 11:09:59;;;;;;;4.58;3.27;;;;;;;9.85;53.66;100800.83;1755394;81;21215;-74
2021/04/02 11:12:28;;;;;;;8.98;4.70;;;;;;;9.91;53.27;100802.86;1755693;81;21144;-75
2021/04/02 11:14:56;;;;;;;6.60;4.72;;;;;;;9.92;52.94;100801.88;1724642;81;21201;-74
2021/04/02 11:17:23;;;;;;;5.33;4.42;;;;;;;9.98;52.66;100795.92;1723825;83;21233;-74
2021/04/02 11:19:50;;;;;;;12.53;6.28;;;;;;;9.97;52.42;100789.75;1725620;83;21155;-75
2021/04/02 11:22:17;;;;;;;6.87;4.53;;;;;;;9.95;52.21;100793.58;1742054;81;21360;-75
2021/04/02 11:24:43;;;;;;;8.38;4.72;;;;;;;10.02;51.84;100791.95;1752981;81;21160;-74
2021/04/02 11:27:10;;;;;;;7.28;5.30;;;;;;;10.08;51.56;100793.98;1722047;81;21310;-75
2021/04/02 11:29:37;;;;;;;9.23;4.30;;;;;;;9.97;51.12;100787.09;1696599;84;21199;-74
2021/04/02 11:32:08;;;;;;;18.25;5.90;;;;;;;9.94;50.91;100790.06;1721606;83;21687;-76
2021/04/02 11:34:35;;;;;;;9.10;5.83;;;;;;;9.95;50.73;100785.09;1717396;83;21204;-75
2021/04/02 11:37:03;;;;;;;6.83;5.03;;;;;;;10.11;50.40;100783.01;1702557;84;21161;-75